createdAt,value
2022-10-13T00:01:32.588Z,7.72
2022-10-13T00:03:59.799Z,9.02
2022-10-13T00:06:27.616Z,8.50
2022-10-13T00:08:55.003Z,8.90
2022-10-13T00:11:25.524Z,7.80
2022-10-13T00:13:56.886Z,8.50
2022-10-13T00:16:24.416Z,8.23
2022-10-13T00:18:51.930Z,8.90
2022-10-13T00:21:23.203Z,8.52
2022-10-13T00:23:52.273Z,8.00
2022-10-13T00:26:22.303Z,8.15
2022-10-13T00:28:52.528Z,8.95
2022-10-13T00:31:26.286Z,8.68
2022-10-13T00:33:54.069Z,8.63
2022-10-13T00:36:23.491Z,8.48
2022-10-13T00:38:52.209Z,8.38
2022-10-13T00:41:20.091Z,9.30
2022-10-13T00:43:52.929Z,8.55
2022-10-13T00:46:22.525Z,9.02
2022-10-13T00:49:12.110Z,8.82
2022-10-13T00:51:46.503Z,9.13
2022-10-13T00:54:18.585Z,9.60
2022-10-13T00:56:47.350Z,8.43
2022-10-13T00:59:23.280Z,8.55
2022-10-13T01:01:53.963Z,8.10
2022-10-13T01:04:25.525Z,8.25
2022-10-13T01:06:55.128Z,8.00
2022-10-13T01:09:22.365Z,8.00
2022-10-13T01:11:58.496Z,7.93
2022-10-13T01:14:51.718Z,8.38
2022-10-13T01:17:23.678Z,8.70
2022-10-13T01:20:23.987Z,8.77
2022-10-13T01:23:12.533Z,8.60
2022-10-13T01:26:07.266Z,8.10
2022-10-13T01:28:55.974Z,8.52
2022-10-13T01:32:00.556Z,8.85
2022-10-13T01:34:41.124Z,8.10
2022-10-13T01:37:26.472Z,8.63
2022-10-13T01:40:02.289Z,9.18
2022-10-13T01:42:55.896Z,8.32
2022-10-13T01:45:30.789Z,8.30
2022-10-13T01:48:01.743Z,8.38
2022-10-13T01:50:30.875Z,8.32
2022-10-13T01:53:01.874Z,8.65
2022-10-13T01:55:29.760Z,8.43
2022-10-13T01:57:57.253Z,7.72
2022-10-13T02:00:25.951Z,7.70
2022-10-13T02:03:02.417Z,8.25
2022-10-13T02:05:49.259Z,7.93
2022-10-13T02:08:43.075Z,8.32
2022-10-13T02:11:20.450Z,7.43
2022-10-13T02:14:12.836Z,8.95
2022-10-13T02:16:43.570Z,8.60
2022-10-13T02:19:14.925Z,8.73
2022-10-13T02:21:45.243Z,8.10
2022-10-13T02:24:13.712Z,8.73
2022-10-13T02:26:42.138Z,8.25
2022-10-13T02:29:14.306Z,8.45
2022-10-13T02:31:42.516Z,8.70
2022-10-13T02:34:10.410Z,8.50
2022-10-13T02:36:38.513Z,8.23
2022-10-13T02:39:07.509Z,9.40
2022-10-13T02:41:34.853Z,8.82
2022-10-13T02:44:21.081Z,8.77
2022-10-13T02:46:48.330Z,9.23
2022-10-13T02:49:15.641Z,8.82
2022-10-13T02:51:42.886Z,8.68
2022-10-13T02:54:10.173Z,8.77
2022-10-13T02:56:37.438Z,9.35
2022-10-13T02:59:04.969Z,8.77
2022-10-13T03:01:33.006Z,8.95
2022-10-13T03:04:00.319Z,8.60
2022-10-13T03:06:27.607Z,9.20
2022-10-13T03:08:55.171Z,9.32
2022-10-13T03:11:22.691Z,8.55
2022-10-13T03:13:49.961Z,8.27
2022-10-13T03:16:17.161Z,8.68
2022-10-13T03:18:44.434Z,8.73
2022-10-13T03:21:11.717Z,8.13
2022-10-13T03:23:40.192Z,8.30
2022-10-13T03:26:07.453Z,8.40
2022-10-13T03:28:34.794Z,8.77
2022-10-13T03:31:07.266Z,9.55
2022-10-13T03:33:34.726Z,8.57
2022-10-13T03:36:04.716Z,9.57
2022-10-13T03:38:33.902Z,8.65
2022-10-13T03:41:09.048Z,8.45
2022-10-13T03:43:36.425Z,8.55
2022-10-13T03:46:05.320Z,8.10
2022-10-13T03:48:34.062Z,9.07
2022-10-13T03:51:06.302Z,8.68
2022-10-13T03:53:33.816Z,8.85
2022-10-13T03:56:01.364Z,7.88
2022-10-13T03:58:32.511Z,8.75
2022-10-13T04:01:05.306Z,8.70
2022-10-13T04:03:33.524Z,8.20
2022-10-13T04:06:02.617Z,8.32
2022-10-13T04:08:30.939Z,8.90
2022-10-13T04:11:02.667Z,8.73
2022-10-13T04:13:30.234Z,8.77
2022-10-13T04:16:03.258Z,8.70
2022-10-13T04:20:58.126Z,9.32
2022-10-13T04:23:25.580Z,7.95
2022-10-13T04:25:52.928Z,9.20
2022-10-13T04:28:20.259Z,8.82
2022-10-13T04:30:49.578Z,9.02
2022-10-13T04:33:17.183Z,8.55
2022-10-13T04:35:44.406Z,8.52
2022-10-13T04:38:11.736Z,8.35
2022-10-13T04:40:38.922Z,8.35
2022-10-13T04:43:06.206Z,8.23
2022-10-13T04:45:33.403Z,8.38
2022-10-13T04:48:01.122Z,8.55
2022-10-13T04:50:28.789Z,9.18
2022-10-13T04:53:00.868Z,8.15
2022-10-13T04:55:28.239Z,8.90
2022-10-13T04:57:55.762Z,8.45
2022-10-13T05:00:23.108Z,8.48
2022-10-13T05:02:50.472Z,8.43
2022-10-13T05:05:17.789Z,8.18
2022-10-13T05:07:45.113Z,8.52
2022-10-13T05:10:12.524Z,7.63
2022-10-13T05:12:39.723Z,9.02
2022-10-13T05:15:07.544Z,8.80
2022-10-13T05:17:35.643Z,9.10
2022-10-13T05:20:09.256Z,9.30
2022-10-13T05:22:36.522Z,8.75
2022-10-13T05:25:04.472Z,9.07
2022-10-13T05:27:31.785Z,9.90
2022-10-13T05:30:01.261Z,9.38
2022-10-13T05:32:28.537Z,8.65
2022-10-13T05:34:55.833Z,8.10
2022-10-13T05:37:23.045Z,9.07
2022-10-13T05:39:50.324Z,9.60
2022-10-13T05:42:17.776Z,8.73
2022-10-13T05:44:45.398Z,8.70
2022-10-13T05:47:12.653Z,8.70
2022-10-13T05:49:40.003Z,8.43
2022-10-13T05:52:10.639Z,8.73
2022-10-13T05:54:47.251Z,8.05
2022-10-13T05:57:19.430Z,8.45
2022-10-13T05:59:53.706Z,9.83
2022-10-13T06:02:24.163Z,9.25
2022-10-13T06:04:53.879Z,8.45
2022-10-13T06:07:21.358Z,8.52
2022-10-13T06:09:49.729Z,8.50
2022-10-13T06:12:17.126Z,8.98
2022-10-13T06:14:44.527Z,8.80
2022-10-13T06:17:12.125Z,8.40
2022-10-13T06:19:45.366Z,8.63
2022-10-13T06:22:12.815Z,8.55
2022-10-13T06:24:40.140Z,8.15
2022-10-13T06:27:10.408Z,8.50
2022-10-13T06:29:38.471Z,8.50
2022-10-13T06:32:06.708Z,8.77
2022-10-13T06:34:33.963Z,9.27
2022-10-13T06:37:01.378Z,8.73
2022-10-13T06:39:28.694Z,8.50
2022-10-13T06:41:56.118Z,8.50
2022-10-13T06:44:31.643Z,8.95
2022-10-13T06:47:03.458Z,8.53
2022-10-13T06:49:30.671Z,7.60
2022-10-13T06:51:57.994Z,8.52
2022-10-13T06:54:25.291Z,9.52
2022-10-13T06:56:52.845Z,9.48
2022-10-13T06:59:21.076Z,8.52
2022-10-13T07:01:48.925Z,9.48
2022-10-13T07:04:17.515Z,8.20
2022-10-13T07:06:45.048Z,9.70
2022-10-13T07:09:12.464Z,10.18
2022-10-13T07:11:39.764Z,9.88
2022-10-13T07:14:06.989Z,9.15
2022-10-13T07:16:34.306Z,8.98
2022-10-13T07:19:02.077Z,8.85
2022-10-13T07:21:30.780Z,8.88
2022-10-13T07:23:58.231Z,8.52
2022-10-13T07:26:25.558Z,9.43
2022-10-13T07:28:53.013Z,9.30
2022-10-13T07:31:20.707Z,7.50
2022-10-13T07:33:49.885Z,7.78
2022-10-13T07:36:18.212Z,8.65
2022-10-13T07:38:46.231Z,8.48
2022-10-13T07:41:14.382Z,8.15
2022-10-13T07:43:42.064Z,8.13
2022-10-13T07:46:12.033Z,8.27
2022-10-13T07:48:40.102Z,8.07
2022-10-13T07:51:11.774Z,8.02
2022-10-13T07:53:40.464Z,8.45
2022-10-13T07:56:10.754Z,7.63
2022-10-13T07:58:40.195Z,8.07
2022-10-13T08:01:07.953Z,7.57
2022-10-13T08:03:40.180Z,8.20
2022-10-13T08:06:10.245Z,8.70
2022-10-13T08:08:37.889Z,7.90
2022-10-13T08:11:08.272Z,7.72
2022-10-13T08:13:35.962Z,8.50
2022-10-13T08:18:46.765Z,7.88
2022-10-13T08:21:52.769Z,7.68
2022-10-13T08:24:06.353Z,8.93
2022-10-13T08:26:33.768Z,8.40
2022-10-13T08:34:16.664Z,8.32
2022-10-13T08:36:44.090Z,8.07
2022-10-13T08:39:11.668Z,7.60
2022-10-13T08:41:43.871Z,7.35
2022-10-13T08:45:02.734Z,7.93
2022-10-13T08:47:28.212Z,7.68
2022-10-13T08:50:00.466Z,7.82
2022-10-13T08:52:41.933Z,8.95
2022-10-13T08:55:20.354Z,7.82
2022-10-13T08:57:47.751Z,7.65
2022-10-13T09:00:16.352Z,8.40
2022-10-13T09:02:50.459Z,7.70
2022-10-13T09:05:41.398Z,7.30
2022-10-13T09:08:19.418Z,7.95
2022-10-13T09:10:51.019Z,7.13
2022-10-13T09:13:20.368Z,7.38
2022-10-13T09:15:50.554Z,8.60
2022-10-13T09:18:17.878Z,7.63
2022-10-13T09:20:45.129Z,7.57
2022-10-13T09:23:20.118Z,7.05
2022-10-13T09:25:50.540Z,7.47
2022-10-13T09:28:23.919Z,7.53
2022-10-13T09:31:25.340Z,8.05
2022-10-13T09:34:12.141Z,8.05
2022-10-13T09:36:39.546Z,8.48
2022-10-13T09:39:11.707Z,8.10
2022-10-13T09:41:41.397Z,7.85
2022-10-13T09:44:13.366Z,7.90
2022-10-13T09:46:51.649Z,8.70
2022-10-13T09:49:30.950Z,8.07
2022-10-13T09:52:05.690Z,8.23
2022-10-13T09:54:50.067Z,9.13
2022-10-13T09:57:26.168Z,7.43
2022-10-13T10:00:24.298Z,8.80
2022-10-13T10:02:58.134Z,7.97
2022-10-13T10:05:41.819Z,7.88
2022-10-13T10:08:51.006Z,7.60
2022-10-13T10:11:29.837Z,9.05
2022-10-13T10:13:59.099Z,8.40
2022-10-13T10:16:37.311Z,8.82
2022-10-13T10:19:19.037Z,8.27
2022-10-13T10:22:04.963Z,8.73
2022-10-13T10:24:36.522Z,8.80
2022-10-13T10:27:12.544Z,10.60
2022-10-13T10:29:39.770Z,9.02
2022-10-13T10:32:38.995Z,8.52
2022-10-13T10:35:18.059Z,8.73
2022-10-13T10:38:04.043Z,9.18
2022-10-13T10:40:37.916Z,9.43
2022-10-13T10:43:41.097Z,9.50
2022-10-13T10:46:16.667Z,8.63
2022-10-13T10:48:46.375Z,10.05
2022-10-13T10:51:15.188Z,8.65
2022-10-13T10:53:57.636Z,9.85
2022-10-13T10:56:42.735Z,9.45
2022-10-13T10:59:26.817Z,9.52
2022-10-13T11:02:31.077Z,10.10
2022-10-13T11:05:05.204Z,8.88
2022-10-13T11:07:33.711Z,10.02
2022-10-13T11:10:02.839Z,10.43
2022-10-13T11:12:48.237Z,10.45
2022-10-13T11:15:25.326Z,9.68
2022-10-13T11:17:53.017Z,10.20
2022-10-13T11:20:20.347Z,10.63
2022-10-13T11:22:59.779Z,10.30
2022-10-13T11:25:43.538Z,10.38
2022-10-13T11:28:40.144Z,9.57
2022-10-13T11:31:13.845Z,9.98
2022-10-13T11:33:41.036Z,8.73
2022-10-13T11:36:35.739Z,9.20
2022-10-13T11:39:18.110Z,9.93
2022-10-13T11:42:01.790Z,10.48
2022-10-13T11:45:00.736Z,8.57
2022-10-13T11:47:37.152Z,9.82
2022-10-13T11:50:22.834Z,9.23
2022-10-13T11:53:24.451Z,9.27
2022-10-13T11:55:52.885Z,9.60
2022-10-13T11:58:30.158Z,9.90
2022-10-13T12:01:06.450Z,8.95
2022-10-13T12:03:35.156Z,8.68
2022-10-13T12:06:06.188Z,9.48
2022-10-13T12:08:39.126Z,9.65
2022-10-13T12:13:37.768Z,10.15
2022-10-13T12:16:07.197Z,9.88
2022-10-13T12:18:38.324Z,8.77
2022-10-13T12:21:14.233Z,8.95
2022-10-13T12:23:42.112Z,9.05
2022-10-13T12:26:17.774Z,8.68
2022-10-13T12:29:01.486Z,10.13
2022-10-13T12:31:38.682Z,9.13
2022-10-13T12:34:24.889Z,8.65
2022-10-13T12:36:59.343Z,10.48
2022-10-13T12:39:29.310Z,8.65
2022-10-13T12:41:58.542Z,9.07
2022-10-13T12:44:28.651Z,8.38
2022-10-13T12:46:59.311Z,9.65
2022-10-13T12:49:28.160Z,9.48
2022-10-13T12:52:05.809Z,9.02
2022-10-13T12:54:35.083Z,9.05
2022-10-13T12:57:17.680Z,9.38
2022-10-13T12:59:45.046Z,9.85
2022-10-13T13:02:27.911Z,8.32
2022-10-13T13:04:55.480Z,8.57
2022-10-13T13:07:36.566Z,8.82
2022-10-13T13:10:20.233Z,8.40
2022-10-13T13:12:49.211Z,8.27
2022-10-13T13:15:25.651Z,8.20
2022-10-13T13:17:58.727Z,8.25
2022-10-13T13:20:37.363Z,8.50
2022-10-13T13:23:05.712Z,8.20
2022-10-13T13:25:32.985Z,8.63
2022-10-13T13:28:04.392Z,9.68
2022-10-13T13:30:31.842Z,8.77
2022-10-13T13:33:00.210Z,8.48
2022-10-13T13:35:29.242Z,7.65
2022-10-13T13:37:56.544Z,8.77
2022-10-13T13:40:26.790Z,8.25
2022-10-13T13:42:54.987Z,8.40
2022-10-13T13:45:27.542Z,8.77
2022-10-13T13:47:59.496Z,8.63
2022-10-13T13:50:33.210Z,8.90
2022-10-13T13:53:00.648Z,8.48
2022-10-13T13:55:29.635Z,8.48
2022-10-13T13:57:57.726Z,7.88
2022-10-13T14:00:25.402Z,7.95
2022-10-13T14:02:56.660Z,8.93
2022-10-13T14:05:24.769Z,8.40
2022-10-13T14:07:57.689Z,8.35
2022-10-13T14:10:26.395Z,9.07
2022-10-13T14:12:53.748Z,7.82
2022-10-13T14:15:23.435Z,8.65
2022-10-13T14:17:54.159Z,8.85
2022-10-13T14:20:22.015Z,8.40
2022-10-13T14:22:49.312Z,8.18
2022-10-13T14:25:17.262Z,8.50
2022-10-13T14:27:45.874Z,8.07
2022-10-13T14:30:14.509Z,7.97
2022-10-13T14:32:42.092Z,8.05
2022-10-13T14:35:09.467Z,7.82
2022-10-13T14:37:36.833Z,9.07
2022-10-13T14:40:04.783Z,8.05
2022-10-13T14:42:32.882Z,7.60
2022-10-13T14:45:00.192Z,7.70
2022-10-13T14:47:28.029Z,8.05
2022-10-13T14:49:55.753Z,8.38
2022-10-13T14:52:23.464Z,7.95
2022-10-13T14:54:51.017Z,8.27
2022-10-13T14:57:19.293Z,7.50
2022-10-13T14:59:47.016Z,7.53
2022-10-13T15:02:14.573Z,7.50
2022-10-13T15:04:52.102Z,8.35
2022-10-13T15:07:20.082Z,7.43
2022-10-13T15:09:53.408Z,7.82
2022-10-13T15:12:31.709Z,8.93
2022-10-13T15:14:59.031Z,7.72
2022-10-13T15:17:26.382Z,7.55
2022-10-13T15:19:53.706Z,7.30
2022-10-13T15:22:21.205Z,8.38
2022-10-13T15:24:48.651Z,9.10
2022-10-13T15:27:15.946Z,7.45
2022-10-13T15:29:43.175Z,7.72
2022-10-13T15:32:13.562Z,7.82
2022-10-13T15:34:41.785Z,7.15
2022-10-13T15:37:09.079Z,7.78
2022-10-13T15:39:36.454Z,8.25
2022-10-13T15:42:05.026Z,8.10
2022-10-13T15:44:50.901Z,7.90
2022-10-13T15:47:19.869Z,7.57
2022-10-13T15:49:47.220Z,8.00
2022-10-13T15:52:14.555Z,7.55
2022-10-13T15:54:41.816Z,7.90
2022-10-13T15:57:09.037Z,8.13
2022-10-13T15:59:36.301Z,7.57
2022-10-13T16:02:03.620Z,6.97
2022-10-13T16:04:36.389Z,8.02
2022-10-13T16:07:04.826Z,8.18
2022-10-13T16:09:32.090Z,8.10
2022-10-13T16:11:59.366Z,7.85
2022-10-13T16:14:26.678Z,6.90
2022-10-13T16:16:53.930Z,7.55
2022-10-13T16:19:21.328Z,8.15
2022-10-13T16:21:49.256Z,7.00
2022-10-13T16:24:16.671Z,8.18
2022-10-13T16:26:43.909Z,7.30
2022-10-13T16:29:11.155Z,8.02
2022-10-13T16:31:38.431Z,7.57
2022-10-13T16:34:05.913Z,7.78
2022-10-13T16:36:33.186Z,6.88
2022-10-13T16:39:01.378Z,8.50
2022-10-13T16:41:28.681Z,7.95
2022-10-13T16:43:55.969Z,7.50
2022-10-13T16:46:23.675Z,7.43
2022-10-13T16:48:50.931Z,7.05
2022-10-13T16:51:24.000Z,7.72
2022-10-13T16:53:54.511Z,7.10
2022-10-13T16:56:23.744Z,7.45
2022-10-13T16:58:54.442Z,7.43
2022-10-13T17:01:22.163Z,7.65
2022-10-13T17:03:50.581Z,7.00
2022-10-13T17:06:19.952Z,7.80
2022-10-13T17:08:55.309Z,6.82
2022-10-13T17:11:25.373Z,7.20
2022-10-13T17:13:53.402Z,7.80
2022-10-13T17:16:20.971Z,7.25
2022-10-13T17:18:48.307Z,7.72
2022-10-13T17:21:17.801Z,7.85
2022-10-13T17:23:48.572Z,7.78
2022-10-13T17:26:17.844Z,7.20
2022-10-13T17:28:45.214Z,7.28
2022-10-13T17:31:27.786Z,7.43
2022-10-13T17:33:55.136Z,7.95
2022-10-13T17:36:28.137Z,7.10
2022-10-13T17:38:56.850Z,8.00
2022-10-13T17:41:24.884Z,7.88
2022-10-13T17:43:52.666Z,7.07
2022-10-13T17:46:37.506Z,7.55
2022-10-13T17:49:09.151Z,6.78
2022-10-13T17:51:36.500Z,7.80
2022-10-13T17:54:04.296Z,7.82
2022-10-13T17:56:31.855Z,7.43
2022-10-13T17:59:00.466Z,7.63
2022-10-13T18:01:31.756Z,7.70
2022-10-13T18:04:05.364Z,7.90
2022-10-13T18:06:43.991Z,7.68
2022-10-13T18:09:17.577Z,6.57
2022-10-13T18:11:50.221Z,7.45
2022-10-13T18:14:20.175Z,7.22
2022-10-13T18:16:49.980Z,7.55
2022-10-13T18:19:17.252Z,6.75
2022-10-13T18:21:44.617Z,7.60
2022-10-13T18:24:12.446Z,7.68
2022-10-13T18:26:40.574Z,7.43
2022-10-13T18:29:09.234Z,6.97
2022-10-13T18:31:38.000Z,7.80
2022-10-13T18:34:08.659Z,7.38
2022-10-13T18:36:38.933Z,7.93
2022-10-13T18:39:14.285Z,8.23
2022-10-13T18:41:45.636Z,7.68
2022-10-13T18:44:13.181Z,8.32
2022-10-13T18:46:41.004Z,7.20
2022-10-13T18:49:14.868Z,7.38
2022-10-13T18:51:44.110Z,7.28
2022-10-13T18:54:15.111Z,6.90
2022-10-13T18:56:42.477Z,7.22
2022-10-13T18:59:10.993Z,7.47
2022-10-13T19:01:39.254Z,6.75
2022-10-13T19:04:07.070Z,7.18
2022-10-13T19:06:35.430Z,7.45
2022-10-13T19:09:12.275Z,6.93
2022-10-13T19:11:39.891Z,6.97
2022-10-13T19:14:10.884Z,7.28
2022-10-13T19:16:40.437Z,7.20
2022-10-13T19:19:10.516Z,7.38
2022-10-13T19:21:38.275Z,7.32
2022-10-13T19:24:07.539Z,7.18
2022-10-13T19:26:38.785Z,7.00
2022-10-13T19:29:10.493Z,6.53
2022-10-13T19:31:39.601Z,6.85
2022-10-13T19:34:11.956Z,7.05
2022-10-13T19:36:43.566Z,7.30
2022-10-13T19:39:23.484Z,7.40
2022-10-13T19:41:53.249Z,7.28
2022-10-13T19:44:22.106Z,7.05
2022-10-13T19:46:50.619Z,6.60
2022-10-13T19:49:35.731Z,7.70
2022-10-13T19:52:09.003Z,8.00
2022-10-13T19:54:38.977Z,7.47
2022-10-13T19:57:06.309Z,7.32
2022-10-13T19:59:33.561Z,7.05
2022-10-13T20:02:01.029Z,7.70
2022-10-13T20:04:28.327Z,7.28
2022-10-13T20:06:58.773Z,7.43
2022-10-13T20:09:26.090Z,8.27
2022-10-13T20:11:57.367Z,8.20
2022-10-13T20:14:24.706Z,7.72
2022-10-13T20:16:53.448Z,7.57
2022-10-13T20:19:20.777Z,7.03
2022-10-13T20:21:48.567Z,8.07
2022-10-13T20:24:16.221Z,7.28
2022-10-13T20:26:50.750Z,8.05
2022-10-13T20:32:06.896Z,7.70
2022-10-13T20:34:35.998Z,6.97
2022-10-13T20:37:03.212Z,8.48
2022-10-13T20:39:30.464Z,7.57
2022-10-13T20:41:57.735Z,7.82
2022-10-13T20:44:24.976Z,8.38
2022-10-13T20:46:52.290Z,6.60
2022-10-13T20:49:22.048Z,7.28
2022-10-13T20:51:49.436Z,7.10
2022-10-13T20:54:16.830Z,7.93
2022-10-13T20:56:44.153Z,7.20
2022-10-13T20:59:14.816Z,7.38
2022-10-13T21:01:42.647Z,7.70
2022-10-13T21:04:10.189Z,7.32
2022-10-13T21:06:37.722Z,7.57
2022-10-13T21:09:06.041Z,8.35
2022-10-13T21:11:34.539Z,7.38
2022-10-13T21:14:06.580Z,8.27
2022-10-13T21:16:34.647Z,9.33
2022-10-13T21:19:02.833Z,8.32
2022-10-13T21:21:32.150Z,8.90
2022-10-13T21:24:02.783Z,8.32
2022-10-13T21:26:31.473Z,7.95
2022-10-13T21:28:59.295Z,8.45
2022-10-13T21:31:27.399Z,7.55
2022-10-13T21:33:55.537Z,8.23
2022-10-13T21:36:28.566Z,8.57
2022-10-13T21:41:28.604Z,8.25
2022-10-13T21:43:56.320Z,8.45
2022-10-13T21:46:26.630Z,8.32
2022-10-13T21:48:58.941Z,7.80
2022-10-13T21:51:29.723Z,7.10
2022-10-13T21:54:03.789Z,7.55
2022-10-13T21:56:32.265Z,7.70
2022-10-13T21:59:01.714Z,7.47
2022-10-13T22:01:29.174Z,9.25
2022-10-13T22:04:01.087Z,8.15
2022-10-13T22:06:30.171Z,8.13
2022-10-13T22:09:00.614Z,7.50
2022-10-13T22:11:30.766Z,7.68
2022-10-13T22:13:58.598Z,7.07
2022-10-13T22:16:29.435Z,7.60
2022-10-13T22:18:58.295Z,8.05
2022-10-13T22:21:30.815Z,8.55
2022-10-13T22:24:00.918Z,8.82
2022-10-13T22:26:31.026Z,8.55
2022-10-13T22:28:59.296Z,7.93
2022-10-13T22:31:27.320Z,7.90
2022-10-13T22:33:55.109Z,7.90
2022-10-13T22:36:24.670Z,8.82
2022-10-13T22:38:54.850Z,8.95
2022-10-13T22:41:22.738Z,8.43
2022-10-13T22:43:52.166Z,8.65
2022-10-13T22:46:21.968Z,8.00
2022-10-13T22:48:49.602Z,8.98
2022-10-13T22:51:21.604Z,7.70
2022-10-13T22:53:50.023Z,8.45
2022-10-13T22:56:23.838Z,7.75
2022-10-13T22:58:52.694Z,8.63
2022-10-13T23:01:21.451Z,8.38
2022-10-13T23:03:50.454Z,7.85
2022-10-13T23:06:21.023Z,7.88
2022-10-13T23:08:49.005Z,9.00
2022-10-13T23:11:17.790Z,8.13
2022-10-13T23:13:45.611Z,8.35
2022-10-13T23:16:15.910Z,8.18
2022-10-13T23:18:43.439Z,8.18
2022-10-13T23:21:26.172Z,8.57
2022-10-13T23:23:57.991Z,8.85
2022-10-13T23:26:25.743Z,8.70
2022-10-13T23:28:56.182Z,9.07
2022-10-13T23:31:24.112Z,9.85
2022-10-13T23:33:51.741Z,8.95
2022-10-13T23:36:23.199Z,8.00
2022-10-13T23:39:05.799Z,8.55
2022-10-13T23:41:33.351Z,8.55
2022-10-13T23:44:00.712Z,8.73
2022-10-13T23:46:28.345Z,8.38
2022-10-13T23:48:55.935Z,9.52
2022-10-13T23:51:25.219Z,8.35
2022-10-13T23:53:53.052Z,8.63
2022-10-13T23:56:20.576Z,9.98
2022-10-13T23:58:48.433Z,8.48
